Time;durP1;ratioP1;P1;durP2;ratioP2;P2;SDS_P1;SDS_P2;PMS_P1;PMS_P2;Temp;Humidity;BMP_temperature;BMP_pressure;BME280_temperature;BME280_humidity;BME280_pressure;Samples;Min_cycle;Max_cycle;Signal;HPM_P1;HPM_P2
2022/11/11 05:09:15;;;;;;;25.35;11.68;;;;;;;5.86;100.00;102049.31;6071977;28;20192;-84
2022/11/11 05:12:37;;;;;;;30.15;12.10;;;;;;;5.67;100.00;102044.41;5211719;34;31238;-85
2022/11/11 05:23:18;;;;;;;25.85;12.07;;;;;;;5.34;100.00;102052.00;5223664;34;35842;-85
2022/11/11 05:26:39;;;;;;;26.95;13.27;;;;;;;5.24;100.00;102057.13;5219689;34;32342;-86
2022/11/11 05:30:00;;;;;;;29.30;13.82;;;;;;;5.20;100.00;102055.59;5227982;34;34079;-85
2022/11/11 05:33:21;;;;;;;26.08;11.82;;;;;;;5.14;100.00;102054.19;5230002;34;33938;-85
2022/11/11 05:36:43;;;;;;;27.80;13.02;;;;;;;5.13;100.00;102049.81;5226679;34;34271;-85
2022/11/11 05:40:05;;;;;;;29.00;12.82;;;;;;;5.08;100.00;102053.75;5230197;34;34011;-85
2022/11/11 05:43:26;;;;;;;27.52;13.27;;;;;;;5.07;100.00;102055.56;5237516;33;35317;-85
2022/11/11 05:46:47;;;;;;;23.92;12.23;;;;;;;5.05;100.00;102065.47;5217992;34;32347;-85
2022/11/11 05:50:08;;;;;;;24.65;12.13;;;;;;;5.02;100.00;102067.50;5241864;34;34815;-85
2022/11/11 05:53:29;;;;;;;21.00;12.18;;;;;;;5.00;100.00;102075.59;5243243;34;34845;-89
2022/11/11 05:56:51;;;;;;;26.15;12.40;;;;;;;4.97;100.00;102079.34;5248839;34;32536;-86
2022/11/11 06:00:13;;;;;;;28.38;13.20;;;;;;;4.93;100.00;102079.62;5247681;34;33742;-85
2022/11/11 06:03:34;;;;;;;29.37;13.05;;;;;;;4.91;100.00;102082.38;5244024;34;33547;-85
2022/11/11 06:06:55;;;;;;;32.05;12.93;;;;;;;5.05;100.00;102077.97;5240227;34;34388;-85
2022/11/11 06:10:31;;;;;;;27.55;12.68;;;;;;;5.10;100.00;102075.88;5231129;34;33413;-86
2022/11/11 06:13:54;;;;;;;27.17;12.52;;;;;;;5.13;100.00;102086.34;5201809;34;32778;-85
2022/11/11 06:17:15;;;;;;;23.40;11.95;;;;;;;5.13;100.00;102099.69;5211609;34;34254;-90
2022/11/11 06:20:36;;;;;;;25.30;12.45;;;;;;;5.17;100.00;102098.53;5204078;34;32687;-85
2022/11/11 06:23:57;;;;;;;26.20;11.57;;;;;;;5.17;100.00;102102.03;5221741;34;34875;-85
2022/11/11 06:27:18;;;;;;;30.00;14.02;;;;;;;5.21;100.00;102106.25;5220244;34;34545;-85
2022/11/11 06:30:39;;;;;;;29.52;12.45;;;;;;;5.34;100.00;102094.75;5218450;34;35315;-85
2022/11/11 06:34:11;;;;;;;26.37;14.00;;;;;;;5.50;100.00;102113.25;5216193;34;32520;-85
2022/11/11 06:37:32;;;;;;;28.12;13.38;;;;;;;5.68;100.00;102112.91;5212224;34;34349;-85
2022/11/11 06:40:53;;;;;;;29.30;14.02;;;;;;;5.80;100.00;102113.03;5219811;34;34575;-85
2022/11/11 06:44:15;;;;;;;25.58;13.57;;;;;;;5.96;100.00;102123.56;5224251;34;33268;-89
2022/11/11 06:47:35;;;;;;;27.05;13.98;;;;;;;6.10;100.00;102118.97;5213802;34;34839;-85
2022/11/11 06:51:04;;;;;;;27.90;13.80;;;;;;;6.26;100.00;102112.56;5206625;34;33748;-85
2022/11/11 06:54:26;;;;;;;26.52;13.57;;;;;;;6.42;100.00;102120.38;5204116;34;34087;-85
2022/11/11 06:57:46;;;;;;;29.35;14.38;;;;;;;6.62;100.00;102118.97;5205766;34;34307;-85
2022/11/11 07:01:08;;;;;;;30.12;14.18;;;;;;;6.74;100.00;102126.97;5199221;34;205191;-85
2022/11/11 07:04:29;;;;;;;27.30;13.45;;;;;;;6.93;100.00;102131.87;5211305;34;33974;-85
2022/11/11 07:07:50;;;;;;;28.05;13.57;;;;;;;7.21;100.00;102146.78;5212616;34;34830;-85
2022/11/11 07:11:11;;;;;;;26.45;13.10;;;;;;;7.24;100.00;102153.72;5211863;34;34871;-89
2022/11/11 07:14:38;;;;;;;29.08;13.02;;;;;;;7.38;100.00;102156.25;5207802;34;32864;-85
2022/11/11 07:18:00;;;;;;;25.62;13.52;;;;;;;7.41;100.00;102156.03;5220390;34;34017;-85
2022/11/11 07:21:21;;;;;;;25.37;13.02;;;;;;;7.64;100.00;102164.19;5219980;34;33640;-85
2022/11/11 07:24:42;;;;;;;27.92;14.63;;;;;;;7.80;100.00;102172.78;5208896;34;33767;-85
2022/11/11 07:28:03;;;;;;;36.90;15.20;;;;;;;7.91;100.00;102177.34;5212720;34;33711;-85
2022/11/11 07:31:24;;;;;;;28.75;13.25;;;;;;;8.05;100.00;102178.97;5202106;34;32455;-85
2022/11/11 07:34:46;;;;;;;22.92;13.25;;;;;;;8.08;100.00;102189.47;5209252;34;34746;-85
2022/11/11 07:38:07;;;;;;;25.92;13.43;;;;;;;8.17;100.00;102186.06;5220084;34;35228;-89
2022/11/11 07:41:28;;;;;;;28.42;13.27;;;;;;;8.37;100.00;102192.59;5219087;34;34755;-85
2022/11/11 07:44:49;;;;;;;25.12;12.52;;;;;;;8.69;100.00;102198.16;5224653;34;34496;-85
2022/11/11 07:48:10;;;;;;;24.98;13.43;;;;;;;8.96;100.00;102207.69;5221820;34;34513;-85
2022/11/11 07:51:31;;;;;;;30.58;15.73;;;;;;;9.17;100.00;102205.12;5208877;34;33760;-85
2022/11/11 07:54:52;;;;;;;36.35;16.48;;;;;;;9.25;100.00;102202.66;5205671;34;32437;-85
2022/11/11 07:58:13;;;;;;;32.45;16.00;;;;;;;9.28;100.00;102197.03;5215854;34;34215;-86
2022/11/11 08:01:34;;;;;;;28.23;15.93;;;;;;;9.27;100.00;102196.19;5213371;34;33422;-86
2022/11/11 08:04:55;;;;;;;33.20;15.35;;;;;;;9.41;100.00;102204.94;5212642;34;33169;-90
2022/11/11 08:08:16;;;;;;;29.75;14.87;;;;;;;9.45;100.00;102201.03;5205719;34;33887;-87
2022/11/11 08:15:24;;;;;;;31.48;15.45;;;;;;;9.50;100.00;102204.19;5204568;34;32517;-86
2022/11/11 08:18:45;;;;;;;27.87;14.87;;;;;;;9.72;100.00;102209.50;5219085;34;34110;-86
2022/11/11 08:22:06;;;;;;;29.55;15.55;;;;;;;9.88;100.00;102211.75;5216325;34;34475;-84
2022/11/11 08:25:28;;;;;;;28.35;14.45;;;;;;;10.01;100.00;102203.53;5209188;34;33923;-84
2022/11/11 08:28:51;;;;;;;27.83;15.15;;;;;;;10.20;100.00;102203.66;5219087;34;33721;-91
2022/11/11 08:32:12;;;;;;;25.27;14.82;;;;;;;10.39;100.00;102218.31;5213868;34;33679;-86
2022/11/11 08:35:33;;;;;;;26.48;14.87;;;;;;;10.66;100.00;102207.81;5224736;34;34207;-86
2022/11/11 08:38:54;;;;;;;27.35;14.75;;;;;;;10.73;100.00;102207.28;5211712;34;34044;-87
2022/11/11 08:42:16;;;;;;;26.23;14.57;;;;;;;10.87;100.00;102204.25;5213482;34;32711;-86
2022/11/11 08:45:37;;;;;;;26.23;14.55;;;;;;;11.09;99.70;102208.59;5212463;34;33705;-87
2022/11/11 08:48:58;;;;;;;27.30;14.45;;;;;;;11.32;99.12;102196.63;5213878;34;35175;-86
2022/11/11 08:52:19;;;;;;;27.37;14.15;;;;;;;11.53;98.22;102201.06;5219680;34;34626;-86
2022/11/11 08:55:40;;;;;;;32.67;14.85;;;;;;;11.55;98.70;102213.41;5202260;34;32796;-90
2022/11/11 08:59:02;;;;;;;25.92;13.75;;;;;;;11.68;97.78;102207.75;5206948;34;34450;-86
2022/11/11 09:02:22;;;;;;;24.23;13.80;;;;;;;11.77;97.50;102211.44;5216753;34;32530;-86
2022/11/11 09:05:46;;;;;;;28.02;14.02;;;;;;;11.96;98.03;102213.31;5210415;34;32496;-85
2022/11/11 09:09:07;;;;;;;26.50;13.15;;;;;;;12.12;93.40;102208.22;5217374;34;34095;-86
2022/11/11 09:12:28;;;;;;;24.83;14.57;;;;;;;12.04;94.28;102216.19;5197864;34;33710;-85
2022/11/11 09:15:52;;;;;;;25.90;14.23;;;;;;;12.07;96.22;102215.88;5201816;34;34473;-86
2022/11/11 09:19:13;;;;;;;25.42;14.23;;;;;;;12.06;94.75;102207.94;5188382;34;32548;-85
2022/11/11 09:22:44;;;;;;;23.95;13.73;;;;;;;11.92;92.94;102209.22;5183818;34;32564;-89
2022/11/11 09:26:05;;;;;;;28.02;13.82;;;;;;;11.87;94.88;102204.22;5201581;34;34845;-86
2022/11/11 09:29:26;;;;;;;27.83;13.68;;;;;;;11.78;93.34;102205.06;5186379;34;33867;-85
2022/11/11 09:32:47;;;;;;;26.27;14.18;;;;;;;11.85;92.87;102208.94;5200549;34;34761;-85
2022/11/11 09:36:08;;;;;;;30.00;13.85;;;;;;;11.93;93.21;102206.34;5198931;34;34274;-86
2022/11/11 09:39:29;;;;;;;25.70;13.88;;;;;;;11.94;93.77;102199.16;5201853;34;33725;-86
2022/11/11 09:43:05;;;;;;;26.58;14.38;;;;;;;11.72;94.26;102192.97;5209768;34;34318;-86
2022/11/11 09:46:35;;;;;;;26.60;15.15;;;;;;;11.68;95.02;102207.75;5186155;34;33463;-86
2022/11/11 09:50:14;;;;;;;25.45;13.98;;;;;;;11.63;94.03;102209.16;5183942;34;33672;-87
2022/11/11 09:53:41;;;;;;;29.20;16.15;;;;;;;11.83;93.14;102197.41;5201609;34;34354;-86
2022/11/11 09:57:11;;;;;;;32.65;14.93;;;;;;;12.23;89.91;102199.13;5201367;34;34015;-86
2022/11/11 10:00:35;;;;;;;30.42;14.45;;;;;;;12.48;89.51;102195.78;5201942;34;34358;-86
2022/11/11 10:04:19;;;;;;;30.42;15.07;;;;;;;12.77;86.72;102197.56;5201437;34;34898;-86
2022/11/11 10:07:52;;;;;;;27.83;14.70;;;;;;;13.06;86.22;102202.00;5182000;34;32271;-86
2022/11/11 10:11:38;;;;;;;26.92;15.15;;;;;;;13.45;85.63;102193.72;5221509;34;34183;-86
2022/11/11 10:15:00;;;;;;;26.95;16.65;;;;;;;13.94;81.28;102195.06;5199664;34;35330;-84
2022/11/11 10:18:40;;;;;;;29.42;15.75;;;;;;;14.00;80.71;102180.03;5197109;34;32592;-85
2022/11/11 10:22:18;;;;;;;27.77;16.62;;;;;;;14.00;80.21;102180.88;5214827;34;33873;-84
2022/11/11 10:25:48;;;;;;;29.65;16.40;;;;;;;13.86;80.26;102164.34;5203793;34;33951;-85
2022/11/11 10:29:21;;;;;;;30.20;16.25;;;;;;;13.49;82.16;102152.69;5202153;34;32785;-85
2022/11/11 10:32:46;;;;;;;27.40;15.95;;;;;;;13.43;83.93;102158.69;5213614;34;35311;-85
2022/11/11 10:36:16;;;;;;;26.73;16.05;;;;;;;13.52;84.91;102149.66;5205450;34;32852;-85
2022/11/11 10:40:04;;;;;;;30.10;14.73;;;;;;;13.67;84.78;102146.41;5210141;34;33918;-84
2022/11/11 10:43:27;;;;;;;23.15;13.52;;;;;;;14.06;79.83;102153.19;5214043;34;33344;-89
2022/11/11 10:47:01;;;;;;;26.10;14.40;;;;;;;14.22;77.68;102157.88;5205235;34;32874;-85
2022/11/11 10:50:37;;;;;;;23.67;14.35;;;;;;;14.43;78.12;102171.06;5217108;34;32691;-85
2022/11/11 10:54:10;;;;;;;22.55;13.68;;;;;;;15.18;73.90;102176.75;5211220;34;34355;-85
2022/11/11 10:57:44;;;;;;;24.65;12.75;;;;;;;15.67;71.29;102162.44;5219135;34;34481;-85
2022/11/11 11:01:09;;;;;;;21.30;12.10;;;;;;;15.73;71.37;102163.66;5211530;34;34580;-85
2022/11/11 11:04:46;;;;;;;20.60;12.13;;;;;;;16.01;71.23;102156.03;5221143;34;35080;-85
2022/11/11 11:08:11;;;;;;;28.08;16.15;;;;;;;16.03;71.22;102148.59;5214580;34;34397;-85
2022/11/11 11:11:41;;;;;;;29.23;15.95;;;;;;;15.67;71.26;102138.00;5216654;34;33869;-87
2022/11/11 11:15:12;;;;;;;26.48;15.38;;;;;;;15.35;72.21;102122.50;5216594;34;34893;-87
2022/11/11 11:18:33;;;;;;;27.05;14.73;;;;;;;15.28;72.50;102124.19;5203104;34;32291;-87
2022/11/11 11:22:02;;;;;;;26.77;14.93;;;;;;;15.35;72.45;102126.06;5221051;34;35048;-87
2022/11/11 11:25:24;;;;;;;21.75;12.60;;;;;;;15.27;72.57;102119.75;5217856;34;34376;-88
2022/11/11 11:29:00;;;;;;;22.05;12.37;;;;;;;15.73;71.36;102128.34;5214254;34;33862;-87
2022/11/11 11:32:29;;;;;;;;;;;;;;;16.25;68.78;102126.13;5222564;34;34438;-86
2022/11/11 11:35:50;;;;;;;14.70;8.65;;;;;;;16.41;67.88;102119.81;5212544;34;34555;-86
2022/11/11 11:39:11;;;;;;;13.02;8.02;;;;;;;16.52;66.85;102116.69;5218558;34;32995;-86
2022/11/11 11:42:35;;;;;;;13.27;6.55;;;;;;;16.64;66.41;102117.19;5216739;34;33895;-86
2022/11/11 11:46:01;;;;;;;8.25;5.15;;;;;;;16.45;66.85;102123.03;5204611;34;32354;-86
2022/11/11 11:49:49;;;;;;;9.88;4.95;;;;;;;16.37;67.16;102129.31;5209488;34;32689;-87
2022/11/11 11:53:19;;;;;;;9.73;4.62;;;;;;;17.06;64.05;102126.06;5222333;34;34896;-86
2022/11/11 11:56:46;;;;;;;7.85;4.15;;;;;;;17.26;63.09;102127.31;5197939;34;33092;-86
2022/11/11 12:00:18;;;;;;;13.23;5.10;;;;;;;17.61;60.43;102131.34;5205633;34;35675;-86
2022/11/11 12:04:14;;;;;;;9.48;5.03;;;;;;;18.06;59.48;102126.91;5219072;34;34388;-86
2022/11/11 12:07:49;;;;;;;11.45;5.62;;;;;;;18.82;57.42;102135.00;5204250;34;32562;-87
2022/11/11 12:11:23;;;;;;;9.45;4.82;;;;;;;19.77;54.02;102134.00;5219002;34;34053;-86
2022/11/11 12:14:53;;;;;;;9.30;5.25;;;;;;;19.70;52.88;102144.88;5207030;34;32976;-86
2022/11/11 12:19:02;;;;;;;10.98;5.20;;;;;;;20.01;51.87;102140.12;5205028;34;33209;-86
2022/11/11 12:22:23;;;;;;;;;;;;;;;21.13;48.31;102128.19;5213437;34;34378;-87
2022/11/11 12:26:02;;;;;;;10.75;5.10;;;;;;;20.71;49.40;102128.22;5205955;34;34904;-87
2022/11/11 12:29:33;;;;;;;;;;;;;;;21.13;48.51;102136.41;5205214;34;33264;-86
2022/11/11 12:33:10;;;;;;;7.95;4.78;;;;;;;22.84;44.04;102129.31;5225776;34;34835;-87
2022/11/11 12:36:46;;;;;;;6.57;3.83;;;;;;;23.89;40.78;102136.38;5208531;34;33681;-87
2022/11/11 12:40:32;;;;;;;7.72;4.20;;;;;;;23.52;41.15;102134.28;5204486;34;32353;-88
2022/11/11 12:44:13;;;;;;;11.80;4.53;;;;;;;21.97;43.29;102133.25;5207175;34;33637;-87
2022/11/11 12:47:59;;;;;;;8.73;4.20;;;;;;;20.69;46.89;102129.47;5206966;34;32311;-86
2022/11/11 12:51:35;;;;;;;8.60;4.25;;;;;;;18.23;53.69;102113.12;5220094;34;33690;-87
2022/11/11 12:54:59;;;;;;;8.85;4.57;;;;;;;16.74;59.72;102119.72;5220109;34;33804;-90
2022/11/11 12:58:42;;;;;;;10.60;4.85;;;;;;;15.75;63.47;102135.31;5218411;34;34445;-86
2022/11/11 13:02:34;;;;;;;8.82;4.07;;;;;;;15.33;66.73;102133.53;5219603;34;34033;-86
2022/11/11 13:06:16;;;;;;;10.38;4.78;;;;;;;14.99;67.24;102132.75;5219813;34;34078;-86
2022/11/11 13:09:48;;;;;;;8.93;4.78;;;;;;;15.04;67.71;102116.84;5213662;34;33873;-86
2022/11/11 13:13:55;;;;;;;11.82;4.47;;;;;;;15.17;67.64;102096.34;5203301;34;33797;-86
2022/11/11 13:17:16;;;;;;;9.57;4.37;;;;;;;14.76;68.10;102099.94;5154119;34;33326;-86
2022/11/11 13:20:45;;;;;;;10.48;3.92;;;;;;;14.58;68.51;102100.03;5177267;34;33556;-86
2022/11/11 13:24:11;;;;;;;9.02;3.70;;;;;;;14.45;68.63;102106.72;5214447;34;33834;-86
2022/11/11 13:27:37;;;;;;;10.35;4.68;;;;;;;14.25;70.67;102097.97;5213873;34;33945;-86
2022/11/11 13:31:34;;;;;;;11.10;4.65;;;;;;;14.29;70.85;102112.03;5215751;34;33894;-86
2022/11/11 13:34:55;;;;;;;10.75;5.07;;;;;;;14.13;72.07;102114.63;5201414;34;32622;-86
2022/11/11 13:38:54;;;;;;;12.13;5.47;;;;;;;13.90;73.25;102119.72;5209585;34;33852;-85
2022/11/11 13:42:23;;;;;;;6.40;5.00;;;;;;;13.53;76.86;102115.31;5208962;34;32358;-85
2022/11/11 13:45:52;;;;;;;11.32;5.65;;;;;;;13.33;77.86;102096.53;5208501;34;32797;-89
2022/11/11 13:49:31;;;;;;;13.95;6.87;;;;;;;13.39;78.43;102087.78;5206101;34;32443;-86
2022/11/11 13:53:02;;;;;;;13.90;6.53;;;;;;;13.25;80.33;102093.75;5208990;34;33902;-86
2022/11/11 13:56:55;;;;;;;14.50;6.72;;;;;;;13.12;81.63;102096.78;5224140;34;34078;-86
2022/11/11 14:00:17;;;;;;;12.75;6.40;;;;;;;13.01;82.63;102093.44;5200442;34;33257;-86
2022/11/11 14:03:44;;;;;;;11.77;7.25;;;;;;;12.93;84.31;102095.06;5202326;34;32916;-90
2022/11/11 14:07:06;;;;;;;13.25;7.00;;;;;;;12.92;84.97;102084.37;5197135;34;32802;-86
2022/11/11 14:10:28;;;;;;;15.48;6.50;;;;;;;12.75;85.61;102094.16;5199686;34;32902;-86
2022/11/11 14:13:49;;;;;;;12.90;6.97;;;;;;;12.67;87.86;102088.66;5219812;34;34013;-86
2022/11/11 14:17:13;;;;;;;12.15;6.90;;;;;;;12.53;87.99;102092.69;5213829;34;32718;-85
2022/11/11 14:20:39;;;;;;;16.45;6.82;;;;;;;12.54;88.63;102098.94;5233821;34;34411;-85
2022/11/11 14:24:00;;;;;;;11.57;6.82;;;;;;;12.54;87.79;102091.69;5214724;34;34457;-85
2022/11/11 14:27:32;;;;;;;13.85;6.80;;;;;;;12.43;89.44;102081.94;5215825;34;34051;-85
2022/11/11 14:30:57;;;;;;;15.43;7.20;;;;;;;12.24;90.11;102076.59;5210349;34;34373;-85
2022/11/11 14:34:31;;;;;;;11.95;6.62;;;;;;;12.15;91.00;102074.78;5210229;34;34380;-84
2022/11/11 14:38:13;;;;;;;11.15;6.30;;;;;;;12.06;90.71;102076.50;5201122;34;33018;-84
2022/11/11 14:41:42;;;;;;;14.45;6.43;;;;;;;12.00;91.09;102066.31;5213406;34;33994;-85
2022/11/11 14:45:27;;;;;;;13.60;6.28;;;;;;;11.92;91.47;102066.16;5207108;34;32253;-84
2022/11/11 14:48:50;;;;;;;15.95;7.07;;;;;;;11.73;93.16;102067.87;5205555;34;33304;-83
2022/11/11 14:52:27;;;;;;;11.68;6.72;;;;;;;11.70;93.68;102064.59;5209676;34;34566;-84
2022/11/11 14:55:53;;;;;;;15.70;7.15;;;;;;;11.60;95.36;102070.00;5220354;34;34637;-84
2022/11/11 14:59:17;;;;;;;14.00;7.43;;;;;;;11.49;96.05;102079.09;5219036;34;32078;-84
2022/11/11 15:02:48;;;;;;;14.68;7.72;;;;;;;11.40;99.23;102071.84;5212849;34;34617;-84
2022/11/11 15:06:18;;;;;;;18.10;9.27;;;;;;;11.27;99.78;102077.53;5213695;34;34275;-86
2022/11/11 15:09:58;;;;;;;16.73;9.20;;;;;;;11.16;100.00;102063.34;5231214;33;34529;-84
2022/11/11 15:13:44;;;;;;;21.27;8.85;;;;;;;11.12;100.00;102070.84;5216851;34;34281;-83
2022/11/11 15:17:05;;;;;;;15.80;9.77;;;;;;;10.99;100.00;102073.78;5198352;34;33759;-84
2022/11/11 15:20:43;;;;;;;20.65;9.98;;;;;;;10.87;100.00;102070.37;5206025;34;33312;-84
2022/11/11 15:24:35;;;;;;;19.80;9.73;;;;;;;10.70;100.00;102075.56;5203565;34;33789;-84
2022/11/11 15:28:26;;;;;;;17.73;9.75;;;;;;;10.56;100.00;102076.78;5203129;34;33485;-86
2022/11/11 15:32:03;;;;;;;17.98;9.45;;;;;;;10.45;100.00;102075.06;5213178;34;33749;-86
2022/11/11 15:36:02;;;;;;;15.43;9.25;;;;;;;10.33;100.00;102073.47;5219291;34;34386;-86
2022/11/11 15:39:39;;;;;;;19.08;9.68;;;;;;;10.24;100.00;102075.09;5199364;34;33715;-85
2022/11/11 15:43:02;;;;;;;19.85;10.05;;;;;;;10.16;100.00;102086.50;5224163;34;34312;-84
2022/11/11 15:46:27;;;;;;;17.98;9.73;;;;;;;10.05;100.00;102083.88;5197861;34;32896;-86
2022/11/11 15:49:48;;;;;;;19.48;11.40;;;;;;;9.89;100.00;102083.50;5211707;34;34447;-85
2022/11/11 15:53:20;;;;;;;20.25;11.45;;;;;;;9.86;100.00;102083.78;5210060;34;34713;-84
2022/11/11 15:56:42;;;;;;;18.10;10.55;;;;;;;9.84;100.00;102091.13;5202201;34;32188;-84
2022/11/11 16:00:24;;;;;;;18.40;10.93;;;;;;;9.73;100.00;102090.19;5206077;34;33727;-86
2022/11/11 16:03:45;;;;;;;18.42;9.50;;;;;;;9.74;100.00;102091.06;5213373;34;34110;-85
2022/11/11 16:07:16;;;;;;;20.70;11.05;;;;;;;9.70;100.00;102098.50;5205771;34;34956;-86
2022/11/11 16:10:40;;;;;;;18.85;11.15;;;;;;;9.62;100.00;102100.97;5205049;34;32746;-87
2022/11/11 16:14:04;;;;;;;22.62;11.10;;;;;;;9.61;100.00;102106.50;5215601;34;34733;-86
2022/11/11 16:17:36;;;;;;;20.02;10.73;;;;;;;9.50;100.00;102099.34;5236571;34;34509;-84
2022/11/11 16:21:10;;;;;;;22.10;11.35;;;;;;;9.43;100.00;102098.16;5214534;34;34005;-86
2022/11/11 16:24:33;;;;;;;19.75;11.07;;;;;;;9.32;100.00;102099.03;5206870;34;33311;-85
2022/11/11 16:27:55;;;;;;;21.27;11.23;;;;;;;9.32;100.00;102094.50;5195956;34;32599;-84
2022/11/11 16:31:35;;;;;;;19.40;11.20;;;;;;;9.27;100.00;102098.56;5203468;34;34773;-84
2022/11/11 16:35:23;;;;;;;18.87;10.60;;;;;;;9.22;100.00;102100.78;5226934;34;34557;-84
2022/11/11 16:38:44;;;;;;;22.02;11.57;;;;;;;9.06;100.00;102096.66;5215369;34;34206;-86
2022/11/11 16:42:19;;;;;;;21.92;11.90;;;;;;;8.95;100.00;102091.34;5206681;34;32777;-89
2022/11/11 16:46:02;;;;;;;20.60;11.18;;;;;;;8.89;100.00;102093.66;5216808;34;34771;-84
2022/11/11 16:49:41;;;;;;;21.40;11.02;;;;;;;8.82;100.00;102090.63;5207276;34;32752;-86
2022/11/11 16:53:03;;;;;;;19.92;10.60;;;;;;;8.74;100.00;102082.31;5214246;34;32840;-87
2022/11/11 16:56:28;;;;;;;22.13;12.68;;;;;;;8.68;100.00;102086.34;5205940;34;33160;-86
